San Gennaro — IIOT2 — position and weather

sailwx.info

Track history (hours):
 
Tides and Currents Weather Stations Pressure Air Temp Water Temp Dewpoint Dewpoint Depression Visibility Wind Speed Wind Dir Waves Ship Positions

San Gennaro

Last reported at 2014-Oct-19 16:28 UTC. Time now 2014-Oct-23 08:52 UTC.
Position N 40°51' E 014°16'.

Length 27 m; draft 5.2 m.

Type: Tug. MMSI: 247295700.

Date/timePositionNaut miles runAvg speedWind from/ knotsBaromVisibWave heightAir tempDewpointWater temp
2014-Oct-19 16:28N 40°51' E 014°16'1 0.0
2014-Oct-17 20:17N 40°50' E 014°18'  
2014-Oct-15 14:13N 40°51' E 014°16'1 0.0
2014-Oct-14 12:29N 40°50' E 014°17'1 0.5
2014-Oct-14 11:21N 40°50' E 014°17'1 0.2
2014-Oct-14 08:31N 40°51' E 014°16'0 0.0
2014-Oct-13 16:22N 40°51' E 014°16'0 0.0
2014-Oct-13 15:18N 40°51' E 014°16'0 0.2
2014-Oct-13 14:34N 40°50' E 014°16'6 2.9
2014-Oct-13 12:34N 40°46' E 014°21'5 4.3
2014-Oct-13 11:26N 40°50' E 014°17'1 0.5
2014-Oct-13 09:21N 40°51' E 014°16'0 0.0
2014-Oct-13 08:32N 40°51' E 014°16'0 0.0
2014-Oct-11 18:06N 40°51' E 014°16'0 0.0
2014-Oct-11 17:34N 40°51' E 014°16'0 0.0
2014-Oct-11 16:33N 40°51' E 014°16'0 0.0
2014-Oct-11 15:32N 40°51' E 014°16'0 0.0
2014-Oct-11 13:29N 40°51' E 014°16'0 0.0
2014-Oct-11 12:33N 40°51' E 014°16'0 0.0
2014-Oct-11 11:33N 40°51' E 014°16'0 0.0
2014-Oct-11 10:34N 40°51' E 014°16'0 0.0
2014-Oct-11 01:04N 40°51' E 014°16'0 0.0
2014-Oct-11 00:34N 40°51' E 014°16'0 0.0
2014-Oct-10 23:34N 40°51' E 014°16'0 0.0
2014-Oct-10 22:34N 40°51' E 014°16'0 0.0
2014-Oct-10 21:08N 40°51' E 014°16'0 0.0
2014-Oct-10 20:33N 40°51' E 014°16'0 0.0
2014-Oct-10 19:33N 40°51' E 014°16'0 0.0
2014-Oct-10 18:32N 40°51' E 014°16'0 0.0
2014-Oct-10 17:31N 40°51' E 014°16'0 0.0
2014-Oct-10 16:33N 40°51' E 014°16'0 0.0
2014-Oct-10 15:34N 40°51' E 014°16'0 0.0
2014-Oct-10 14:34N 40°51' E 014°16'0 0.0
2014-Oct-10 13:28N 40°51' E 014°16'0 0.0
2014-Oct-10 12:34N 40°51' E 014°16'0 0.0
2014-Oct-10 11:34N 40°51' E 014°16'1 1.4
2014-Oct-10 10:33N 40°50' E 014°18'1 0.6
2014-Oct-10 08:24N 40°51' E 014°16'1 0.8
2014-Oct-10 07:33N 40°51' E 014°17'1 0.7
2014-Oct-10 06:33N 40°50' E 014°17'1 0.2
2014-Oct-10 01:24N 40°51' E 014°16'0 0.0
2014-Oct-09 23:30N 40°51' E 014°16'0 0.0
2014-Oct-09 22:09N 40°51' E 014°16'1 2.2
2014-Oct-09 21:34N 40°50' E 014°17'1 1.0
2014-Oct-09 20:12N 40°51' E 014°16'0 0.0
2014-Oct-09 18:27N 40°51' E 014°16'0 0.0
2014-Oct-09 17:28N 40°51' E 014°16'0 0.0
2014-Oct-09 16:34N 40°51' E 014°16'  
Track history (hours):
 
Tides and Currents Weather Stations Pressure Air Temp Water Temp Dewpoint Dewpoint Depression Visibility Wind Speed Wind Dir Waves Ship Positions

San Gennaro

Last reported at 2014-Oct-19 16:28 UTC. Time now 2014-Oct-23 08:52 UTC.
Position N 40°51' E 014°16'.

Length 27 m; draft 5.2 m.

Type: Tug. MMSI: 247295700.

Date/timePositionNaut miles runAvg speedWind from/ knotsBaromVisibWave heightAir tempDewpointWater temp
2014-Oct-19 16:28N 40°51' E 014°16'1 0.0
2014-Oct-17 20:17N 40°50' E 014°18'  
2014-Oct-15 14:13N 40°51' E 014°16'1 0.0
2014-Oct-14 12:29N 40°50' E 014°17'1 0.5
2014-Oct-14 11:21N 40°50' E 014°17'1 0.2
2014-Oct-14 08:31N 40°51' E 014°16'0 0.0
2014-Oct-13 16:22N 40°51' E 014°16'0 0.0
2014-Oct-13 15:18N 40°51' E 014°16'0 0.2
2014-Oct-13 14:34N 40°50' E 014°16'6 2.9
2014-Oct-13 12:34N 40°46' E 014°21'5 4.3
2014-Oct-13 11:26N 40°50' E 014°17'1 0.5
2014-Oct-13 09:21N 40°51' E 014°16'0 0.0
2014-Oct-13 08:32N 40°51' E 014°16'0 0.0
2014-Oct-11 18:06N 40°51' E 014°16'0 0.0
2014-Oct-11 17:34N 40°51' E 014°16'0 0.0
2014-Oct-11 16:33N 40°51' E 014°16'0 0.0
2014-Oct-11 15:32N 40°51' E 014°16'0 0.0
2014-Oct-11 13:29N 40°51' E 014°16'0 0.0
2014-Oct-11 12:33N 40°51' E 014°16'0 0.0
2014-Oct-11 11:33N 40°51' E 014°16'0 0.0
2014-Oct-11 10:34N 40°51' E 014°16'0 0.0
2014-Oct-11 01:04N 40°51' E 014°16'0 0.0
2014-Oct-11 00:34N 40°51' E 014°16'0 0.0
2014-Oct-10 23:34N 40°51' E 014°16'0 0.0
2014-Oct-10 22:34N 40°51' E 014°16'0 0.0
2014-Oct-10 21:08N 40°51' E 014°16'0 0.0
2014-Oct-10 20:33N 40°51' E 014°16'0 0.0
2014-Oct-10 19:33N 40°51' E 014°16'0 0.0
2014-Oct-10 18:32N 40°51' E 014°16'0 0.0
2014-Oct-10 17:31N 40°51' E 014°16'0 0.0
2014-Oct-10 16:33N 40°51' E 014°16'0 0.0
2014-Oct-10 15:34N 40°51' E 014°16'0 0.0
2014-Oct-10 14:34N 40°51' E 014°16'0 0.0
2014-Oct-10 13:28N 40°51' E 014°16'0 0.0
2014-Oct-10 12:34N 40°51' E 014°16'0 0.0
2014-Oct-10 11:34N 40°51' E 014°16'1 1.4
2014-Oct-10 10:33N 40°50' E 014°18'1 0.6
2014-Oct-10 08:24N 40°51' E 014°16'1 0.8
2014-Oct-10 07:33N 40°51' E 014°17'1 0.7
2014-Oct-10 06:33N 40°50' E 014°17'1 0.2
2014-Oct-10 01:24N 40°51' E 014°16'0 0.0
2014-Oct-09 23:30N 40°51' E 014°16'0 0.0
2014-Oct-09 22:09N 40°51' E 014°16'1 2.2
2014-Oct-09 21:34N 40°50' E 014°17'1 1.0
2014-Oct-09 20:12N 40°51' E 014°16'0 0.0
2014-Oct-09 18:27N 40°51' E 014°16'0 0.0
2014-Oct-09 17:28N 40°51' E 014°16'0 0.0
2014-Oct-09 16:34N 40°51' E 014°16'  

Dump ship's entire track history